Time;durP1;ratioP1;P1;durP2;ratioP2;P2;SDS_P1;SDS_P2;PMS_P1;PMS_P2;Temp;Humidity;BMP_temperature;BMP_pressure;BME280_temperature;BME280_humidity;BME280_pressure;Samples;Min_cycle;Max_cycle;Signal;HPM_P1;HPM_P2
2022/07/03 00:02:09;;;;;;;4.23;3.03;;;;;;;;;;5051550;28;20292;-53
2022/07/03 00:04:35;;;;;;;4.47;3.33;;;;;;;;;;5051837;28;20202;-52
2022/07/03 00:07:01;;;;;;;4.00;3.53;;;;;;;;;;5051241;28;20204;-52
2022/07/03 00:09:27;;;;;;;4.40;3.57;;;;;;;;;;5051702;28;20203;-52
2022/07/03 00:11:53;;;;;;;4.77;3.60;;;;;;;;;;5051933;28;20198;-52
2022/07/03 00:14:21;;;;;;;6.47;3.80;;;;;;;;;;5050092;28;20252;-49
2022/07/03 00:16:47;;;;;;;4.43;4.03;;;;;;;;;;5051620;28;20204;-50
2022/07/03 00:19:13;;;;;;;5.07;3.70;;;;;;;;;;5051748;28;20637;-50
2022/07/03 00:21:41;;;;;;;3.60;3.30;;;;;;;;;;5051572;28;20282;-50
2022/07/03 00:24:08;;;;;;;3.13;2.83;;;;;;;;;;5051918;28;20307;-49
2022/07/03 00:26:36;;;;;;;6.47;2.90;;;;;;;;;;5051861;28;20243;-49
2022/07/03 00:29:03;;;;;;;3.40;2.50;;;;;;;;;;5051702;28;20207;-50
2022/07/03 00:31:31;;;;;;;4.07;2.63;;;;;;;;;;5052035;28;20204;-50
2022/07/03 00:33:58;;;;;;;2.77;2.33;;;;;;;;;;5050999;28;20235;-50
2022/07/03 00:36:25;;;;;;;2.50;2.23;;;;;;;;;;5051734;28;20204;-50
2022/07/03 00:38:51;;;;;;;5.23;2.20;;;;;;;;;;5051647;28;20656;-50
2022/07/03 00:41:25;;;;;;;2.57;2.20;;;;;;;;;;5051787;28;20258;-50
2022/07/03 00:43:51;;;;;;;2.57;2.37;;;;;;;;;;5051764;28;20282;-51
2022/07/03 00:46:17;;;;;;;4.57;2.10;;;;;;;;;;5051806;28;20200;-51
2022/07/03 00:48:46;;;;;;;4.47;2.60;;;;;;;;;;5051427;28;20665;-51
2022/07/03 00:51:17;;;;;;;3.97;2.50;;;;;;;;;;5051561;28;20686;-49
2022/07/03 00:53:46;;;;;;;3.70;2.50;;;;;;;;;;5051455;28;20205;-50
2022/07/03 00:56:13;;;;;;;5.33;2.80;;;;;;;;;;5051670;28;20193;-50
2022/07/03 00:58:41;;;;;;;3.17;2.70;;;;;;;;;;5051509;28;20669;-50
2022/07/03 01:01:07;;;;;;;4.23;2.40;;;;;;;;;;5051173;28;20725;-50
2022/07/03 01:03:34;;;;;;;4.63;3.10;;;;;;;;;;5051395;28;20228;-50
2022/07/03 01:06:04;;;;;;;3.10;2.63;;;;;;;;;;5051539;28;20662;-51
2022/07/03 01:08:35;;;;;;;3.20;2.40;;;;;;;;;;5051429;28;20231;-51
2022/07/03 01:11:04;;;;;;;2.80;2.50;;;;;;;;;;5049901;28;20200;-50
2022/07/03 01:13:39;;;;;;;2.50;2.30;;;;;;;;;;5049886;28;20192;-51
2022/07/03 01:16:06;;;;;;;3.13;2.50;;;;;;;;;;5051573;28;20206;-51
2022/07/03 01:18:36;;;;;;;4.67;2.40;;;;;;;;;;5052362;28;20254;-51
2022/07/03 01:21:07;;;;;;;3.60;2.77;;;;;;;;;;5055366;28;20216;-52
2022/07/03 01:23:46;;;;;;;2.83;2.40;;;;;;;;;;5053359;28;20228;-51
2022/07/03 01:26:16;;;;;;;3.23;2.70;;;;;;;;;;5054972;28;20626;-51
2022/07/03 01:28:44;;;;;;;4.50;2.87;;;;;;;;;;5054860;28;20314;-50
2022/07/03 01:31:11;;;;;;;3.00;2.57;;;;;;;;;;5054924;28;20204;-51
2022/07/03 01:33:38;;;;;;;2.80;2.60;;;;;;;;;;5054723;28;20322;-51
2022/07/03 01:36:05;;;;;;;4.17;3.13;;;;;;;;;;5054839;28;20193;-50
2022/07/03 01:38:33;;;;;;;3.40;2.53;;;;;;;;;;5054823;28;20254;-50
2022/07/03 01:40:59;;;;;;;3.90;2.87;;;;;;;;;;5054748;28;20279;-50
2022/07/03 01:43:29;;;;;;;3.00;2.70;;;;;;;;;;5054516;28;20232;-50
2022/07/03 01:45:56;;;;;;;2.70;2.50;;;;;;;;;;5054711;28;20200;-51
2022/07/03 01:48:23;;;;;;;2.97;2.70;;;;;;;;;;5054516;28;20200;-50
2022/07/03 01:50:50;;;;;;;4.73;2.30;;;;;;;;;;5054481;28;20223;-50
2022/07/03 01:53:16;;;;;;;3.37;2.57;;;;;;;;;;5054631;28;20197;-51
2022/07/03 01:55:43;;;;;;;2.80;2.53;;;;;;;;;;5054451;28;20196;-49
2022/07/03 01:58:09;;;;;;;2.33;2.03;;;;;;;;;;5054373;28;20207;-50
2022/07/03 02:00:41;;;;;;;2.50;2.30;;;;;;;;;;5054332;28;20578;-49
2022/07/03 02:03:07;;;;;;;4.70;2.60;;;;;;;;;;5054102;28;20236;-49
2022/07/03 02:05:37;;;;;;;3.27;2.20;;;;;;;;;;5054392;28;20246;-50
2022/07/03 02:08:12;;;;;;;2.33;2.13;;;;;;;;;;5054466;28;20207;-50
2022/07/03 02:10:39;;;;;;;3.87;2.23;;;;;;;;;;5054045;28;20664;-51
2022/07/03 02:13:08;;;;;;;3.63;2.40;;;;;;;;;;5054385;28;20200;-50
2022/07/03 02:15:34;;;;;;;5.60;3.57;;;;;;;;;;5054038;28;20199;-49
2022/07/03 02:18:08;;;;;;;7.10;4.03;;;;;;;;;;5054021;28;20200;-50
2022/07/03 02:20:36;;;;;;;6.23;3.50;;;;;;;;;;5053962;28;20681;-50
2022/07/03 02:23:03;;;;;;;4.60;2.97;;;;;;;;;;5054113;28;20227;-50
2022/07/03 02:25:34;;;;;;;2.67;2.40;;;;;;;;;;5053914;28;20203;-50
2022/07/03 02:28:04;;;;;;;2.87;2.47;;;;;;;;;;5053996;28;20200;-50
2022/07/03 02:30:30;;;;;;;3.40;2.73;;;;;;;;;;5052956;28;20200;-50
2022/07/03 02:32:58;;;;;;;3.57;2.43;;;;;;;;;;5053738;28;20203;-50
2022/07/03 02:35:26;;;;;;;5.10;3.00;;;;;;;;;;5053641;28;20214;-49
2022/07/03 02:37:56;;;;;;;3.40;3.10;;;;;;;;;;5053581;28;20208;-50
2022/07/03 02:40:25;;;;;;;4.57;3.07;;;;;;;;;;5053760;28;20254;-50
2022/07/03 02:42:56;;;;;;;3.57;2.83;;;;;;;;;;5053468;28;20228;-51
2022/07/03 02:45:23;;;;;;;3.27;2.70;;;;;;;;;;5053665;28;20196;-49
2022/07/03 02:47:51;;;;;;;4.30;2.57;;;;;;;;;;5053408;28;20207;-49
2022/07/03 02:50:21;;;;;;;3.53;2.57;;;;;;;;;;5053549;28;20200;-50
2022/07/03 02:52:52;;;;;;;4.33;2.53;;;;;;;;;;5053470;28;20730;-50
2022/07/03 02:55:27;;;;;;;2.53;2.30;;;;;;;;;;5053285;28;20200;-48
2022/07/03 02:58:06;;;;;;;2.60;2.40;;;;;;;;;;5053383;28;20202;-50
2022/07/03 03:00:34;;;;;;;3.20;2.60;;;;;;;;;;5051183;28;20270;-50
2022/07/03 03:03:01;;;;;;;3.00;2.70;;;;;;;;;;5052280;28;20228;-50
2022/07/03 03:05:30;;;;;;;2.60;2.40;;;;;;;;;;5052727;28;20579;-51
2022/07/03 03:08:11;;;;;;;2.60;2.40;;;;;;;;;;5052862;28;20214;-50
2022/07/03 03:10:37;;;;;;;2.67;2.47;;;;;;;;;;5052719;28;20207;-50
2022/07/03 03:13:04;;;;;;;2.80;2.57;;;;;;;;;;5052885;28;20203;-50
2022/07/03 03:15:31;;;;;;;2.63;2.23;;;;;;;;;;5052902;28;20534;-50
2022/07/03 03:18:00;;;;;;;2.70;2.07;;;;;;;;;;5052646;28;20254;-50
2022/07/03 03:20:28;;;;;;;4.43;2.60;;;;;;;;;;5052666;28;20295;-50
2022/07/03 03:23:00;;;;;;;2.60;2.30;;;;;;;;;;5052519;28;20536;-50
2022/07/03 03:25:27;;;;;;;3.47;2.40;;;;;;;;;;5052606;28;20196;-50
2022/07/03 03:27:53;;;;;;;5.40;3.03;;;;;;;;;;5052230;28;20208;-50
2022/07/03 03:30:19;;;;;;;4.87;4.03;;;;;;;;;;5052550;28;20200;-50
2022/07/03 03:32:45;;;;;;;3.37;3.03;;;;;;;;;;5052392;28;20609;-50
2022/07/03 03:35:11;;;;;;;3.67;3.10;;;;;;;;;;5052219;28;20223;-50
2022/07/03 03:37:37;;;;;;;4.80;3.40;;;;;;;;;;5052144;28;20204;-50
2022/07/03 03:40:04;;;;;;;6.53;3.70;;;;;;;;;;5050804;28;20242;-50
2022/07/03 03:42:31;;;;;;;4.20;3.50;;;;;;;;;;5051181;28;20234;-50
2022/07/03 03:44:57;;;;;;;2.63;2.40;;;;;;;;;;5052313;28;20204;-50
2022/07/03 03:47:24;;;;;;;2.47;2.27;;;;;;;;;;5051867;28;20273;-50
2022/07/03 03:49:50;;;;;;;3.07;2.50;;;;;;;;;;5051879;28;20222;-50
2022/07/03 03:52:16;;;;;;;2.63;2.43;;;;;;;;;;5051989;28;20196;-50
2022/07/03 03:54:42;;;;;;;4.50;2.40;;;;;;;;;;5051802;28;20235;-51
2022/07/03 03:57:16;;;;;;;2.90;2.43;;;;;;;;;;5052049;28;20203;-51
2022/07/03 03:59:43;;;;;;;2.40;2.20;;;;;;;;;;5051818;28;20274;-50
2022/07/03 04:02:09;;;;;;;2.20;2.03;;;;;;;;;;5051644;28;20240;-50
2022/07/03 04:04:35;;;;;;;2.67;2.10;;;;;;;;;;5051817;28;20210;-51
2022/07/03 04:07:01;;;;;;;2.90;2.13;;;;;;;;;;5052049;28;20612;-49
2022/07/03 04:09:27;;;;;;;3.77;2.40;;;;;;;;;;5051653;28;20200;-49
2022/07/03 04:11:53;;;;;;;3.13;2.50;;;;;;;;;;5051650;28;20196;-49
2022/07/03 04:14:19;;;;;;;2.60;2.30;;;;;;;;;;5051601;28;20546;-51
2022/07/03 04:16:46;;;;;;;3.37;2.37;;;;;;;;;;5051670;28;20208;-50
2022/07/03 04:19:12;;;;;;;5.40;2.30;;;;;;;;;;5051790;28;20204;-50
2022/07/03 04:21:38;;;;;;;2.50;2.30;;;;;;;;;;5051274;28;20203;-49
2022/07/03 04:24:04;;;;;;;3.23;2.63;;;;;;;;;;5051499;28;20212;-50
2022/07/03 04:26:30;;;;;;;3.60;2.70;;;;;;;;;;5051505;28;20250;-48
2022/07/03 04:28:56;;;;;;;2.40;2.20;;;;;;;;;;5051622;28;20196;-49
2022/07/03 04:31:22;;;;;;;3.67;2.43;;;;;;;;;;5051520;28;20681;-49
2022/07/03 04:33:50;;;;;;;3.20;2.30;;;;;;;;;;5051594;28;20184;-49
2022/07/03 04:36:16;;;;;;;4.03;2.13;;;;;;;;;;5051701;28;20204;-49
2022/07/03 04:38:42;;;;;;;2.90;2.23;;;;;;;;;;5051358;28;20200;-49
2022/07/03 04:41:08;;;;;;;2.50;2.30;;;;;;;;;;5051257;28;20278;-49
2022/07/03 04:43:34;;;;;;;2.77;2.17;;;;;;;;;;5051243;28;20308;-50
2022/07/03 04:46:00;;;;;;;2.73;2.30;;;;;;;;;;5051335;28;20689;-50
2022/07/03 04:48:28;;;;;;;3.47;2.20;;;;;;;;;;5051190;28;20611;-49
2022/07/03 04:50:55;;;;;;;2.47;2.27;;;;;;;;;;5051311;28;20716;-49
2022/07/03 04:53:21;;;;;;;2.30;2.10;;;;;;;;;;5053848;28;20219;-50
2022/07/03 04:55:47;;;;;;;4.00;2.40;;;;;;;;;;5055398;28;20670;-49
2022/07/03 04:58:13;;;;;;;4.00;2.20;;;;;;;;;;5055430;28;20267;-50
2022/07/03 05:00:40;;;;;;;3.70;2.23;;;;;;;;;;5055079;28;20293;-49
2022/07/03 05:03:06;;;;;;;3.07;2.47;;;;;;;;;;5055049;28;20236;-49
2022/07/03 05:05:32;;;;;;;2.37;2.17;;;;;;;;;;5055309;28;20206;-50
2022/07/03 05:08:00;;;;;;;2.50;2.23;;;;;;;;;;5055067;28;20560;-49
2022/07/03 05:10:26;;;;;;;3.83;2.30;;;;;;;;;;5055122;28;20206;-49
2022/07/03 05:12:52;;;;;;;5.20;2.37;;;;;;;;;;5055297;28;20204;-49
2022/07/03 05:15:18;;;;;;;3.53;2.33;;;;;;;;;;5055393;28;20276;-49
2022/07/03 05:17:44;;;;;;;2.53;2.33;;;;;;;;;;5054874;28;20218;-49
2022/07/03 05:20:29;;;;;;;2.50;2.10;;;;;;;;;;5054996;28;20205;-49
2022/07/03 05:22:55;;;;;;;3.07;1.90;;;;;;;;;;5054757;28;20296;-51
2022/07/03 05:25:22;;;;;;;3.53;2.27;;;;;;;;;;5054900;28;20211;-50
2022/07/03 05:27:50;;;;;;;5.37;2.50;;;;;;;;;;5054985;28;20197;-48
2022/07/03 05:30:16;;;;;;;4.27;2.10;;;;;;;;;;5054929;28;20196;-48
2022/07/03 05:32:42;;;;;;;4.50;2.30;;;;;;;;;;5054561;28;20191;-49
2022/07/03 05:35:08;;;;;;;3.43;2.30;;;;;;;;;;5054633;28;20212;-50
2022/07/03 05:37:34;;;;;;;5.03;2.43;;;;;;;;;;5054372;28;20200;-50
2022/07/03 05:40:01;;;;;;;6.60;2.70;;;;;;;;;;5054572;28;20203;-49
2022/07/03 05:42:28;;;;;;;2.70;2.10;;;;;;;;;;5054504;28;20219;-49
2022/07/03 05:44:54;;;;;;;4.00;2.40;;;;;;;;;;5054383;28;20200;-50
2022/07/03 05:47:20;;;;;;;3.37;2.20;;;;;;;;;;5054265;28;20200;-49
2022/07/03 05:49:47;;;;;;;2.80;2.20;;;;;;;;;;5054347;28;20300;-50
2022/07/03 05:52:13;;;;;;;4.33;2.30;;;;;;;;;;5054346;28;20204;-50
2022/07/03 05:54:39;;;;;;;2.50;2.30;;;;;;;;;;5054080;28;20246;-50
2022/07/03 05:57:05;;;;;;;3.43;2.33;;;;;;;;;;5054251;28;20200;-50
2022/07/03 05:59:32;;;;;;;3.73;2.17;;;;;;;;;;5053994;28;20700;-49
2022/07/03 06:01:58;;;;;;;2.10;1.90;;;;;;;;;;5053635;28;20313;-50
2022/07/03 06:04:24;;;;;;;3.37;2.03;;;;;;;;;;5053062;28;20697;-51
2022/07/03 06:06:50;;;;;;;2.07;1.83;;;;;;;;;;5053722;28;20192;-50
2022/07/03 06:09:17;;;;;;;2.87;2.10;;;;;;;;;;5054082;28;20257;-50
2022/07/03 06:11:43;;;;;;;4.60;1.87;;;;;;;;;;5053615;28;20677;-50
2022/07/03 06:14:09;;;;;;;2.97;1.90;;;;;;;;;;5053925;28;20246;-50
2022/07/03 06:16:36;;;;;;;2.90;2.30;;;;;;;;;;5053839;28;20258;-50
2022/07/03 06:19:02;;;;;;;2.60;2.03;;;;;;;;;;5053878;28;20663;-50
2022/07/03 06:21:28;;;;;;;2.53;2.10;;;;;;;;;;5053751;28;20204;-50
2022/07/03 06:23:54;;;;;;;3.73;2.00;;;;;;;;;;5053508;28;20232;-50
2022/07/03 06:26:20;;;;;;;2.43;1.80;;;;;;;;;;5053783;28;20206;-50
2022/07/03 06:28:46;;;;;;;3.37;1.73;;;;;;;;;;5053572;28;20601;-49
2022/07/03 06:31:12;;;;;;;2.60;1.80;;;;;;;;;;5053536;28;20200;-50
2022/07/03 06:33:39;;;;;;;2.80;1.70;;;;;;;;;;5053545;28;20275;-50
2022/07/03 06:36:06;;;;;;;2.37;1.90;;;;;;;;;;5053599;28;20570;-50
2022/07/03 06:38:32;;;;;;;2.70;2.10;;;;;;;;;;5053450;28;20626;-49
2022/07/03 06:40:58;;;;;;;2.67;1.83;;;;;;;;;;5053612;28;20200;-50
2022/07/03 06:43:24;;;;;;;2.47;1.87;;;;;;;;;;5053365;28;20231;-50
2022/07/03 06:45:50;;;;;;;6.63;2.67;;;;;;;;;;5053334;28;20238;-50
2022/07/03 06:48:16;;;;;;;2.30;2.10;;;;;;;;;;5053226;28;20650;-51
2022/07/03 06:50:43;;;;;;;2.10;1.87;;;;;;;;;;5053554;28;20595;-52
2022/07/03 06:53:09;;;;;;;2.60;1.80;;;;;;;;;;5053430;28;20220;-51
2022/07/03 06:55:35;;;;;;;3.03;2.00;;;;;;;;;;5053103;28;20200;-50
2022/07/03 06:58:01;;;;;;;5.57;2.40;;;;;;;;;;5053167;28;20285;-51
2022/07/03 07:00:27;;;;;;;4.67;2.20;;;;;;;;;;5052789;28;20707;-51
2022/07/03 07:02:53;;;;;;;2.40;1.80;;;;;;;;;;5052515;28;20240;-50
2022/07/03 07:05:19;;;;;;;4.30;1.80;;;;;;;;;;5052874;28;20565;-51
2022/07/03 07:07:46;;;;;;;5.50;2.30;;;;;;;;;;5052828;28;20207;-51
2022/07/03 07:10:12;;;;;;;3.07;1.90;;;;;;;;;;5052722;28;20204;-50
2022/07/03 07:12:38;;;;;;;2.70;1.87;;;;;;;;;;5052553;28;20572;-49
2022/07/03 07:15:04;;;;;;;4.57;1.97;;;;;;;;;;5052803;28;20199;-50
2022/07/03 07:17:30;;;;;;;4.27;2.13;;;;;;;;;;5052739;28;20205;-50
2022/07/03 07:19:56;;;;;;;2.97;2.00;;;;;;;;;;5052575;28;20293;-50
2022/07/03 07:22:23;;;;;;;2.57;1.60;;;;;;;;;;5052496;28;20194;-51
2022/07/03 07:24:50;;;;;;;3.70;2.00;;;;;;;;;;5052651;28;20201;-53
2022/07/03 07:27:16;;;;;;;3.23;1.90;;;;;;;;;;5052613;28;20720;-51
2022/07/03 07:29:42;;;;;;;4.23;2.20;;;;;;;;;;5052402;28;20206;-53
2022/07/03 07:32:08;;;;;;;2.20;1.80;;;;;;;;;;5052358;28;20255;-52
2022/07/03 07:34:34;;;;;;;3.93;2.10;;;;;;;;;;5052551;28;20597;-51
2022/07/03 07:37:00;;;;;;;3.10;1.90;;;;;;;;;;5052287;28;20202;-52
2022/07/03 07:39:26;;;;;;;3.00;2.03;;;;;;;;;;5052298;28;20202;-52
2022/07/03 07:41:54;;;;;;;4.40;2.10;;;;;;;;;;5052275;28;20297;-51
2022/07/03 07:44:20;;;;;;;4.13;2.10;;;;;;;;;;5051337;28;20261;-51
2022/07/03 07:46:46;;;;;;;3.07;1.80;;;;;;;;;;5051804;28;20206;-51
2022/07/03 07:49:12;;;;;;;2.87;1.97;;;;;;;;;;5051933;28;20197;-51
2022/07/03 07:51:38;;;;;;;2.37;1.70;;;;;;;;;;5051918;28;20659;-51
2022/07/03 07:54:04;;;;;;;1.80;1.60;;;;;;;;;;5051994;28;20223;-51
2022/07/03 07:56:30;;;;;;;2.03;1.60;;;;;;;;;;5051852;28;20586;-52
2022/07/03 07:58:57;;;;;;;1.80;1.43;;;;;;;;;;5051713;28;20302;-52
2022/07/03 08:06:52;;;;;;;2.33;1.60;;;;;;;;;;5051588;28;20195;-51
2022/07/03 08:09:18;;;;;;;2.20;1.27;;;;;;;;;;5051978;28;20196;-51
2022/07/03 08:11:44;;;;;;;1.53;1.20;;;;;;;;;;5051528;28;20204;-51
2022/07/03 08:14:11;;;;;;;1.93;1.40;;;;;;;;;;5051591;28;20200;-51
2022/07/03 08:16:42;;;;;;;1.77;1.40;;;;;;;;;;5051255;28;20214;-51
2022/07/03 08:19:08;;;;;;;5.50;1.57;;;;;;;;;;5051594;28;20252;-51
2022/07/03 08:21:34;;;;;;;3.10;1.53;;;;;;;;;;5051457;28;20200;-52
2022/07/03 08:24:00;;;;;;;1.57;1.20;;;;;;;;;;5051433;28;20302;-50
2022/07/03 08:26:26;;;;;;;4.43;1.43;;;;;;;;;;5051362;28;20626;-51
2022/07/03 08:28:52;;;;;;;2.60;1.80;;;;;;;;;;5050742;28;20207;-52
2022/07/03 08:31:19;;;;;;;2.80;1.20;;;;;;;;;;5051512;28;20726;-52
2022/07/03 08:33:45;;;;;;;2.40;1.50;;;;;;;;;;5051316;28;20206;-52
2022/07/03 08:36:11;;;;;;;4.77;1.40;;;;;;;;;;5051250;28;20234;-53
2022/07/03 08:38:37;;;;;;;4.33;1.50;;;;;;;;;;5051192;28;20676;-52
2022/07/03 08:41:04;;;;;;;1.90;1.53;;;;;;;;;;5051475;28;20253;-52
2022/07/03 08:43:30;;;;;;;1.83;1.20;;;;;;;;;;5051245;28;20230;-50
2022/07/03 08:45:57;;;;;;;2.30;1.23;;;;;;;;;;5051107;28;20203;-51
2022/07/03 08:48:25;;;;;;;2.53;1.00;;;;;;;;;;5051136;28;20288;-52
2022/07/03 08:50:52;;;;;;;1.20;1.10;;;;;;;;;;5049795;28;20307;-51
2022/07/03 08:53:18;;;;;;;2.10;1.33;;;;;;;;;;5051525;28;20689;-51
2022/07/03 08:55:44;;;;;;;1.40;1.30;;;;;;;;;;5051074;28;20201;-51
2022/07/03 08:58:12;;;;;;;2.37;1.30;;;;;;;;;;5051176;28;20212;-51
2022/07/03 09:00:38;;;;;;;2.27;1.30;;;;;;;;;;5050930;28;20219;-52
2022/07/03 09:03:09;;;;;;;2.03;1.30;;;;;;;;;;5050841;28;20644;-52
2022/07/03 09:05:36;;;;;;;2.23;1.40;;;;;;;;;;5051028;28;20200;-51
2022/07/03 09:08:03;;;;;;;1.53;1.10;;;;;;;;;;5051010;28;20328;-51
2022/07/03 09:10:29;;;;;;;2.53;1.30;;;;;;;;;;5050895;28;20196;-51
2022/07/03 09:12:55;;;;;;;4.07;1.40;;;;;;;;;;5050821;28;20631;-52
2022/07/03 09:15:22;;;;;;;4.33;1.30;;;;;;;;;;5050850;28;20193;-51
2022/07/03 09:17:58;;;;;;;2.00;1.10;;;;;;;;;;5051295;28;20554;-51
2022/07/03 09:20:28;;;;;;;1.47;1.17;;;;;;;;;;5050916;28;20280;-53
2022/07/03 09:22:58;;;;;;;2.37;1.30;;;;;;;;;;5050684;28;20223;-52
2022/07/03 09:25:24;;;;;;;2.63;1.40;;;;;;;;;;5050866;28;20298;-53
2022/07/03 09:27:51;;;;;;;3.03;1.20;;;;;;;;;;5050729;28;20291;-52
2022/07/03 09:30:17;;;;;;;2.77;1.17;;;;;;;;;;5051131;28;20251;-53
2022/07/03 09:32:44;;;;;;;4.47;1.13;;;;;;;;;;5050627;28;20203;-53
2022/07/03 09:35:12;;;;;;;2.20;1.17;;;;;;;;;;5050769;28;20262;-52
2022/07/03 09:37:38;;;;;;;1.40;1.20;;;;;;;;;;5050311;28;20196;-52
2022/07/03 09:40:06;;;;;;;4.13;1.40;;;;;;;;;;5052736;28;20291;-53
2022/07/03 09:42:32;;;;;;;2.43;1.20;;;;;;;;;;5054568;28;20206;-53
2022/07/03 09:44:58;;;;;;;1.73;1.10;;;;;;;;;;5054355;28;20336;-52
2022/07/03 09:47:25;;;;;;;4.80;1.50;;;;;;;;;;5054509;28;20222;-53
2022/07/03 09:49:53;;;;;;;3.10;1.00;;;;;;;;;;5054461;28;20623;-52
2022/07/03 09:52:30;;;;;;;6.10;1.10;;;;;;;;;;5054607;28;20588;-53
2022/07/03 09:54:56;;;;;;;1.17;0.93;;;;;;;;;;5054274;28;20200;-55
2022/07/03 09:57:25;;;;;;;4.27;1.13;;;;;;;;;;5054519;28;20195;-53
2022/07/03 10:00:08;;;;;;;1.87;0.80;;;;;;;;;;5054074;28;20314;-52
2022/07/03 10:02:34;;;;;;;2.17;1.20;;;;;;;;;;5054437;28;20237;-51
2022/07/03 10:05:11;;;;;;;1.63;1.10;;;;;;;;;;5054396;28;20234;-53
2022/07/03 10:07:50;;;;;;;1.90;1.30;;;;;;;;;;5054290;28;20198;-52
2022/07/03 10:10:16;;;;;;;3.27;1.10;;;;;;;;;;5054476;28;20302;-51
2022/07/03 10:12:44;;;;;;;1.77;0.90;;;;;;;;;;5053866;28;20265;-52
2022/07/03 10:15:11;;;;;;;0.90;0.80;;;;;;;;;;5054094;28;20573;-51
2022/07/03 10:17:37;;;;;;;1.03;0.90;;;;;;;;;;5054084;28;20246;-51
2022/07/03 10:20:03;;;;;;;1.10;1.00;;;;;;;;;;5053982;28;20203;-52
2022/07/03 10:22:31;;;;;;;2.03;0.80;;;;;;;;;;5054100;28;20203;-52
2022/07/03 10:24:58;;;;;;;5.40;1.17;;;;;;;;;;5053935;28;20695;-52
2022/07/03 10:27:24;;;;;;;2.93;1.03;;;;;;;;;;5053711;28;20281;-51
2022/07/03 10:29:52;;;;;;;1.70;1.20;;;;;;;;;;5053680;28;20269;-53
2022/07/03 10:32:19;;;;;;;1.77;1.10;;;;;;;;;;5054035;28;20290;-52
2022/07/03 10:34:45;;;;;;;1.47;1.10;;;;;;;;;;5053602;28;20205;-52
2022/07/03 10:37:15;;;;;;;2.20;1.30;;;;;;;;;;5053776;28;20217;-52
2022/07/03 10:39:44;;;;;;;2.07;0.80;;;;;;;;;;5053521;28;20201;-51
2022/07/03 10:45:09;;;;;;;1.83;1.10;;;;;;;;;;5053449;28;20238;-52
2022/07/03 10:47:45;;;;;;;3.03;1.03;;;;;;;;;;5053531;28;20200;-53
2022/07/03 10:50:12;;;;;;;1.47;0.83;;;;;;;;;;5053323;28;20229;-52
2022/07/03 10:52:38;;;;;;;4.43;1.13;;;;;;;;;;5053410;28;20205;-53
2022/07/03 10:55:06;;;;;;;2.13;1.00;;;;;;;;;;5053499;28;20287;-53
2022/07/03 10:57:32;;;;;;;1.13;0.70;;;;;;;;;;5053348;28;20238;-52
2022/07/03 11:00:00;;;;;;;1.10;0.83;;;;;;;;;;5053144;28;20212;-52
2022/07/03 11:02:32;;;;;;;2.87;1.37;;;;;;;;;;5052536;28;20262;-53
2022/07/03 11:05:04;;;;;;;1.50;1.00;;;;;;;;;;5053070;28;20223;-52
2022/07/03 11:07:31;;;;;;;1.43;1.00;;;;;;;;;;5053199;28;20302;-53
2022/07/03 11:10:12;;;;;;;0.97;0.90;;;;;;;;;;5052835;28;20200;-53
2022/07/03 11:12:57;;;;;;;2.33;0.80;;;;;;;;;;5052639;28;20257;-53
2022/07/03 11:15:27;;;;;;;3.00;1.00;;;;;;;;;;5052770;28;20197;-53
2022/07/03 11:21:06;;;;;;;3.90;1.20;;;;;;;;;;5108110;27;21082;-54
2022/07/03 11:23:41;;;;;;;1.40;1.20;;;;;;;;;;5109906;28;20214;-53
2022/07/03 11:26:21;;;;;;;1.00;0.90;;;;;;;;;;5109734;28;20265;-53
2022/07/03 11:28:51;;;;;;;4.07;1.00;;;;;;;;;;5109775;28;20190;-53
2022/07/03 11:31:17;;;;;;;2.47;1.10;;;;;;;;;;5109734;28;20293;-53
2022/07/03 11:33:43;;;;;;;1.97;1.10;;;;;;;;;;5109571;28;20187;-54
2022/07/03 11:36:10;;;;;;;1.80;1.23;;;;;;;;;;5109558;28;20648;-54
2022/07/03 11:38:37;;;;;;;1.10;0.80;;;;;;;;;;5109453;28;20201;-53
2022/07/03 11:41:06;;;;;;;1.80;0.87;;;;;;;;;;5109525;28;20205;-53
2022/07/03 11:43:34;;;;;;;1.53;0.90;;;;;;;;;;5109624;28;20260;-53
2022/07/03 11:46:00;;;;;;;1.00;0.73;;;;;;;;;;5109101;28;20781;-54
2022/07/03 11:48:26;;;;;;;0.50;0.50;;;;;;;;;;5109255;28;20200;-54
2022/07/03 11:50:52;;;;;;;1.27;0.67;;;;;;;;;;5109214;28;20728;-52
2022/07/03 11:53:19;;;;;;;1.63;0.93;;;;;;;;;;5109267;28;20188;-52
2022/07/03 11:55:51;;;;;;;1.73;0.93;;;;;;;;;;5109185;28;20216;-53
2022/07/03 11:58:17;;;;;;;1.67;1.00;;;;;;;;;;5109287;28;20208;-53
2022/07/03 12:00:43;;;;;;;1.10;0.97;;;;;;;;;;5108590;28;20264;-53
2022/07/03 12:03:10;;;;;;;4.40;1.10;;;;;;;;;;5108973;28;20229;-53
2022/07/03 12:05:36;;;;;;;2.40;0.73;;;;;;;;;;5108956;28;20292;-54
2022/07/03 12:08:03;;;;;;;0.80;0.80;;;;;;;;;;5108801;28;20194;-54
2022/07/03 12:10:37;;;;;;;1.57;1.00;;;;;;;;;;5108885;28;20249;-54
2022/07/03 12:13:04;;;;;;;3.90;1.10;;;;;;;;;;5109014;28;20194;-53
2022/07/03 12:15:30;;;;;;;1.10;0.83;;;;;;;;;;5108871;28;20569;-53
2022/07/03 12:17:56;;;;;;;2.30;1.20;;;;;;;;;;5108694;28;20199;-53
2022/07/03 12:20:22;;;;;;;4.40;1.10;;;;;;;;;;5108464;28;20248;-53
2022/07/03 12:22:48;;;;;;;2.13;1.00;;;;;;;;;;5108668;28;20223;-52
2022/07/03 12:25:14;;;;;;;5.90;1.00;;;;;;;;;;5108714;28;20251;-52
2022/07/03 12:27:41;;;;;;;5.17;0.80;;;;;;;;;;5108532;28;20282;-53
2022/07/03 12:30:10;;;;;;;1.10;1.00;;;;;;;;;;5106355;28;20283;-52
2022/07/03 12:32:36;;;;;;;0.70;0.70;;;;;;;;;;5094965;28;20197;-54
2022/07/03 12:35:03;;;;;;;1.97;1.10;;;;;;;;;;5094868;28;20206;-54
2022/07/03 12:37:33;;;;;;;1.67;0.90;;;;;;;;;;5094655;28;20205;-53
2022/07/03 12:39:59;;;;;;;2.57;0.90;;;;;;;;;;5094634;28;20361;-53
2022/07/03 12:42:26;;;;;;;0.97;0.73;;;;;;;;;;5094739;28;20201;-53
2022/07/03 12:44:56;;;;;;;1.40;0.80;;;;;;;;;;5094472;28;20601;-53
2022/07/03 12:47:23;;;;;;;1.33;0.73;;;;;;;;;;5094608;28;20211;-52
2022/07/03 12:49:54;;;;;;;1.97;0.80;;;;;;;;;;5094561;28;20220;-52
2022/07/03 12:52:20;;;;;;;1.93;0.90;;;;;;;;;;5094425;28;20207;-53
2022/07/03 12:54:46;;;;;;;1.67;0.80;;;;;;;;;;5094265;28;20206;-52
2022/07/03 13:00:04;;;;;;;6.23;0.93;;;;;;;;;;5094125;28;20649;-53
2022/07/03 13:02:32;;;;;;;3.50;0.90;;;;;;;;;;5094306;28;20200;-53
2022/07/03 13:04:59;;;;;;;2.67;1.40;;;;;;;;;;5094235;28;20290;-53
2022/07/03 13:07:28;;;;;;;2.60;1.13;;;;;;;;;;5094025;28;20731;-54
2022/07/03 13:09:54;;;;;;;1.00;0.90;;;;;;;;;;5094007;28;20205;-54
2022/07/03 13:12:22;;;;;;;1.60;1.00;;;;;;;;;;5094203;28;20273;-53
2022/07/03 13:14:55;;;;;;;1.47;1.00;;;;;;;;;;5094043;28;20200;-53
2022/07/03 13:17:21;;;;;;;1.80;0.87;;;;;;;;;;5094150;28;20204;-53
2022/07/03 13:19:48;;;;;;;1.37;0.90;;;;;;;;;;5093661;28;20233;-53
2022/07/03 13:22:14;;;;;;;1.77;0.90;;;;;;;;;;5094098;28;20206;-53
2022/07/03 13:24:40;;;;;;;1.90;0.77;;;;;;;;;;5093901;28;20199;-53
2022/07/03 13:27:06;;;;;;;1.37;1.00;;;;;;;;;;5093872;28;20210;-53
2022/07/03 13:29:32;;;;;;;1.93;1.03;;;;;;;;;;5093791;28;20651;-54
2022/07/03 13:31:58;;;;;;;3.07;0.90;;;;;;;;;;5093676;28;20285;-53
2022/07/03 13:34:24;;;;;;;0.80;0.80;;;;;;;;;;5093793;28;20652;-53
2022/07/03 13:36:51;;;;;;;1.10;0.70;;;;;;;;;;5093523;28;20191;-53
2022/07/03 13:39:17;;;;;;;1.93;0.80;;;;;;;;;;5093559;28;20714;-54
2022/07/03 13:41:50;;;;;;;1.13;0.90;;;;;;;;;;5092806;28;20236;-53
2022/07/03 13:44:16;;;;;;;1.70;1.03;;;;;;;;;;5093107;28;20263;-52
2022/07/03 13:46:42;;;;;;;1.07;0.83;;;;;;;;;;5090688;28;20578;-53
2022/07/03 13:49:08;;;;;;;2.37;0.90;;;;;;;;;;5092539;28;20224;-53
2022/07/03 13:51:34;;;;;;;1.07;0.73;;;;;;;;;;5092712;28;20274;-53
2022/07/03 13:54:01;;;;;;;1.80;0.83;;;;;;;;;;5092882;28;20701;-53
2022/07/03 13:56:27;;;;;;;2.40;1.10;;;;;;;;;;5092839;28;20210;-53
2022/07/03 13:58:53;;;;;;;1.40;0.90;;;;;;;;;;5092557;28;20219;-53
2022/07/03 14:01:20;;;;;;;1.13;0.90;;;;;;;;;;5092497;28;20200;-53
2022/07/03 14:03:46;;;;;;;1.00;0.80;;;;;;;;;;5092793;28;20246;-60
2022/07/03 14:06:12;;;;;;;3.00;0.90;;;;;;;;;;5092869;28;20200;-59
2022/07/03 14:08:38;;;;;;;2.27;0.93;;;;;;;;;;5092800;28;20211;-60
2022/07/03 14:11:05;;;;;;;1.97;0.73;;;;;;;;;;5092961;28;20198;-57
2022/07/03 14:13:31;;;;;;;1.00;0.90;;;;;;;;;;5092998;28;20206;-53
2022/07/03 14:15:57;;;;;;;3.10;0.90;;;;;;;;;;5091013;28;20577;-53
2022/07/03 14:18:23;;;;;;;1.47;1.10;;;;;;;;;;5092577;28;20202;-54
2022/07/03 14:20:49;;;;;;;0.83;0.77;;;;;;;;;;5092361;28;20233;-53
2022/07/03 14:23:25;;;;;;;1.90;0.80;;;;;;;;;;5092667;28;20652;-52
2022/07/03 14:25:51;;;;;;;3.37;0.80;;;;;;;;;;5089621;28;20663;-53
2022/07/03 14:33:48;;;;;;;1.77;0.97;;;;;;;;;;5092315;28;20253;-53
2022/07/03 14:36:15;;;;;;;1.90;0.97;;;;;;;;;;5092237;28;20666;-53
2022/07/03 14:38:41;;;;;;;1.80;1.00;;;;;;;;;;5091958;28;20329;-53
2022/07/03 14:41:07;;;;;;;2.57;0.97;;;;;;;;;;5091984;28;20254;-52
2022/07/03 14:43:34;;;;;;;3.43;1.20;;;;;;;;;;5092224;28;20274;-53
2022/07/03 14:46:00;;;;;;;2.57;0.97;;;;;;;;;;5091897;28;20212;-52
2022/07/03 14:48:26;;;;;;;2.33;1.10;;;;;;;;;;5091976;28;20285;-53
2022/07/03 14:50:52;;;;;;;3.17;1.10;;;;;;;;;;5091806;28;20194;-53
2022/07/03 14:53:18;;;;;;;1.00;0.80;;;;;;;;;;5091790;28;20205;-53
2022/07/03 14:55:44;;;;;;;3.43;1.00;;;;;;;;;;5091838;28;20254;-54
2022/07/03 14:58:15;;;;;;;3.20;1.07;;;;;;;;;;5091760;28;20197;-53
2022/07/03 15:00:46;;;;;;;2.50;1.30;;;;;;;;;;5091491;28;20229;-53
2022/07/03 15:03:15;;;;;;;1.27;0.90;;;;;;;;;;5091887;28;20206;-53
2022/07/03 15:05:45;;;;;;;2.90;1.30;;;;;;;;;;5091637;28;20604;-53